sensor_id;sensor_type;location;lat;lon;timestamp;pressure;altitude;pressure_sealevel;temperature;humidity
78741;BME280;68062;48.726;9.370;2023-03-17T00:01:52;98502.25;;;6.78;67.18
78741;BME280;68062;48.726;9.370;2023-03-17T00:04:21;98475.63;;;6.52;68.12
78741;BME280;68062;48.726;9.370;2023-03-17T00:06:49;98495.34;;;6.68;68.10
78741;BME280;68062;48.726;9.370;2023-03-17T00:09:17;98472.16;;;6.48;68.89
78741;BME280;68062;48.726;9.370;2023-03-17T00:11:46;98484.22;;;6.63;68.58
78741;BME280;68062;48.726;9.370;2023-03-17T00:14:13;98454.34;;;6.54;67.97
78741;BME280;68062;48.726;9.370;2023-03-17T00:16:42;98484.41;;;6.83;67.54
78741;BME280;68062;48.726;9.370;2023-03-17T00:19:12;98478.31;;;6.69;67.82
78741;BME280;68062;48.726;9.370;2023-03-17T00:21:41;98412.38;;;6.30;68.16
78741;BME280;68062;48.726;9.370;2023-03-17T00:24:09;98462.03;;;6.56;68.35
78741;BME280;68062;48.726;9.370;2023-03-17T00:26:37;98459.41;;;6.50;68.47
78741;BME280;68062;48.726;9.370;2023-03-17T00:29:05;98473.94;;;6.55;67.90
78741;BME280;68062;48.726;9.370;2023-03-17T00:31:33;98458.69;;;6.65;68.21
78741;BME280;68062;48.726;9.370;2023-03-17T00:33:59;98431.44;;;6.63;67.68
78741;BME280;68062;48.726;9.370;2023-03-17T00:36:28;98444.16;;;6.56;68.27
78741;BME280;68062;48.726;9.370;2023-03-17T00:38:56;98356.13;;;6.20;67.96
78741;BME280;68062;48.726;9.370;2023-03-17T00:41:24;98435.66;;;6.61;68.30
78741;BME280;68062;48.726;9.370;2023-03-17T00:43:51;98423.66;;;6.50;68.81
78741;BME280;68062;48.726;9.370;2023-03-17T00:46:26;98438.16;;;6.55;69.66
78741;BME280;68062;48.726;9.370;2023-03-17T00:49:00;98430.53;;;6.58;68.83
78741;BME280;68062;48.726;9.370;2023-03-17T00:51:27;98435.69;;;6.66;68.77
78741;BME280;68062;48.726;9.370;2023-03-17T00:53:54;98410.88;;;6.50;69.02
78741;BME280;68062;48.726;9.370;2023-03-17T00:56:22;98430.69;;;6.77;68.83
78741;BME280;68062;48.726;9.370;2023-03-17T00:58:49;98440.06;;;6.78;69.27
78741;BME280;68062;48.726;9.370;2023-03-17T01:01:15;98416.03;;;6.57;69.59
78741;BME280;68062;48.726;9.370;2023-03-17T01:03:46;98421.25;;;6.71;69.56
78741;BME280;68062;48.726;9.370;2023-03-17T01:06:14;98428.88;;;6.62;69.21
78741;BME280;68062;48.726;9.370;2023-03-17T01:08:42;98402.41;;;6.54;69.03
78741;BME280;68062;48.726;9.370;2023-03-17T01:11:13;98412.63;;;6.58;70.12
78741;BME280;68062;48.726;9.370;2023-03-17T01:13:40;98396.47;;;6.58;70.18
78741;BME280;68062;48.726;9.370;2023-03-17T01:16:09;98387.00;;;6.49;70.71
78741;BME280;68062;48.726;9.370;2023-03-17T01:18:37;98420.38;;;6.65;70.91
78741;BME280;68062;48.726;9.370;2023-03-17T01:21:06;98397.25;;;6.47;71.03
78741;BME280;68062;48.726;9.370;2023-03-17T01:23:34;98393.88;;;6.55;71.52
78741;BME280;68062;48.726;9.370;2023-03-17T01:26:01;98391.41;;;6.67;70.52
78741;BME280;68062;48.726;9.370;2023-03-17T01:28:28;98374.31;;;6.57;70.26
78741;BME280;68062;48.726;9.370;2023-03-17T01:30:55;98383.81;;;6.76;69.79
78741;BME280;68062;48.726;9.370;2023-03-17T01:33:23;98387.84;;;6.48;70.90
78741;BME280;68062;48.726;9.370;2023-03-17T01:35:51;98311.03;;;6.23;70.52
78741;BME280;68062;48.726;9.370;2023-03-17T01:38:19;98311.09;;;6.32;70.26
78741;BME280;68062;48.726;9.370;2023-03-17T01:40:48;98387.28;;;6.83;69.51
78741;BME280;68062;48.726;9.370;2023-03-17T01:43:19;98394.00;;;6.69;70.06
78741;BME280;68062;48.726;9.370;2023-03-17T01:48:57;98393.16;;;6.74;71.35
78741;BME280;68062;48.726;9.370;2023-03-17T01:51:31;98383.50;;;6.38;72.02
78741;BME280;68062;48.726;9.370;2023-03-17T01:54:03;98341.78;;;6.34;71.58
78741;BME280;68062;48.726;9.370;2023-03-17T01:56:31;98390.59;;;6.71;71.44
78741;BME280;68062;48.726;9.370;2023-03-17T01:59:02;98387.94;;;6.57;71.12
78741;BME280;68062;48.726;9.370;2023-03-17T02:01:36;98382.06;;;6.68;71.59
78741;BME280;68062;48.726;9.370;2023-03-17T02:04:04;98383.75;;;6.67;70.81
78741;BME280;68062;48.726;9.370;2023-03-17T02:06:32;98383.63;;;6.50;71.82
78741;BME280;68062;48.726;9.370;2023-03-17T02:09:01;98374.31;;;6.58;71.39
78741;BME280;68062;48.726;9.370;2023-03-17T02:11:29;98370.78;;;6.44;72.16
78741;BME280;68062;48.726;9.370;2023-03-17T02:13:57;98381.19;;;6.66;72.60
78741;BME280;68062;48.726;9.370;2023-03-17T02:16:25;98363.31;;;6.70;72.74
78741;BME280;68062;48.726;9.370;2023-03-17T02:18:53;98371.78;;;6.61;72.77
78741;BME280;68062;48.726;9.370;2023-03-17T02:21:34;98317.88;;;6.26;72.51
78741;BME280;68062;48.726;9.370;2023-03-17T02:24:07;98369.91;;;6.37;73.62
78741;BME280;68062;48.726;9.370;2023-03-17T02:26:35;98374.19;;;6.41;73.00
78741;BME280;68062;48.726;9.370;2023-03-17T02:29:03;98375.91;;;6.44;73.43
78741;BME280;68062;48.726;9.370;2023-03-17T02:31:32;98334.59;;;5.96;73.60
78741;BME280;68062;48.726;9.370;2023-03-17T02:33:59;98379.13;;;6.23;74.29
78741;BME280;68062;48.726;9.370;2023-03-17T02:36:27;98386.56;;;6.02;74.58
78741;BME280;68062;48.726;9.370;2023-03-17T02:38:54;98384.75;;;5.94;74.82
78741;BME280;68062;48.726;9.370;2023-03-17T02:41:22;98387.88;;;5.69;75.41
78741;BME280;68062;48.726;9.370;2023-03-17T02:43:48;98382.66;;;5.60;75.68
78741;BME280;68062;48.726;9.370;2023-03-17T02:46:16;98393.75;;;5.60;75.36
78741;BME280;68062;48.726;9.370;2023-03-17T02:48:44;98394.53;;;5.56;74.83
78741;BME280;68062;48.726;9.370;2023-03-17T02:51:11;98362.03;;;5.40;74.91
78741;BME280;68062;48.726;9.370;2023-03-17T02:53:39;98380.94;;;5.57;74.86
78741;BME280;68062;48.726;9.370;2023-03-17T02:56:07;98361.19;;;5.41;74.95
78741;BME280;68062;48.726;9.370;2023-03-17T02:58:34;98354.47;;;5.48;74.74
78741;BME280;68062;48.726;9.370;2023-03-17T03:01:01;98381.09;;;5.70;74.62
78741;BME280;68062;48.726;9.370;2023-03-17T03:03:29;98392.78;;;5.54;74.88
78741;BME280;68062;48.726;9.370;2023-03-17T03:05:56;98349.91;;;5.23;74.66
78741;BME280;68062;48.726;9.370;2023-03-17T03:08:24;98383.34;;;5.45;74.75
78741;BME280;68062;48.726;9.370;2023-03-17T03:10:52;98357.69;;;5.33;75.40
78741;BME280;68062;48.726;9.370;2023-03-17T03:13:20;98368.97;;;5.52;74.98
78741;BME280;68062;48.726;9.370;2023-03-17T03:15:47;98368.28;;;5.65;75.33
78741;BME280;68062;48.726;9.370;2023-03-17T03:18:14;98341.78;;;5.52;75.34
78741;BME280;68062;48.726;9.370;2023-03-17T03:20:42;98371.50;;;5.52;75.81
78741;BME280;68062;48.726;9.370;2023-03-17T03:23:09;98372.25;;;5.41;77.12
78741;BME280;68062;48.726;9.370;2023-03-17T03:25:36;98356.25;;;5.53;75.38
78741;BME280;68062;48.726;9.370;2023-03-17T03:28:05;98362.44;;;5.75;74.90
78741;BME280;68062;48.726;9.370;2023-03-17T03:30:34;98293.84;;;5.22;75.46
78741;BME280;68062;48.726;9.370;2023-03-17T03:33:02;98359.81;;;5.69;76.26
78741;BME280;68062;48.726;9.370;2023-03-17T03:35:29;98362.44;;;5.74;75.39
78741;BME280;68062;48.726;9.370;2023-03-17T03:37:56;98344.94;;;5.33;76.30
78741;BME280;68062;48.726;9.370;2023-03-17T03:40:24;98375.03;;;5.62;75.92
78741;BME280;68062;48.726;9.370;2023-03-17T03:42:51;98373.44;;;5.71;76.08
78741;BME280;68062;48.726;9.370;2023-03-17T03:45:20;98373.50;;;5.78;75.16
78741;BME280;68062;48.726;9.370;2023-03-17T03:47:47;98374.75;;;5.37;76.36
78741;BME280;68062;48.726;9.370;2023-03-17T03:50:14;98353.44;;;5.33;76.72
78741;BME280;68062;48.726;9.370;2023-03-17T03:52:41;98362.94;;;5.47;77.27
78741;BME280;68062;48.726;9.370;2023-03-17T03:55:08;98316.91;;;5.34;75.50
78741;BME280;68062;48.726;9.370;2023-03-17T03:57:35;98375.22;;;5.77;74.74
78741;BME280;68062;48.726;9.370;2023-03-17T04:00:03;98297.16;;;5.16;75.01
78741;BME280;68062;48.726;9.370;2023-03-17T04:02:38;98370.84;;;5.67;75.19
78741;BME280;68062;48.726;9.370;2023-03-17T04:05:06;98353.66;;;5.50;75.50
78741;BME280;68062;48.726;9.370;2023-03-17T04:07:33;98304.78;;;5.16;75.16
78741;BME280;68062;48.726;9.370;2023-03-17T04:10:00;98369.88;;;5.55;76.31
78741;BME280;68062;48.726;9.370;2023-03-17T04:12:27;98376.69;;;5.56;75.84
78741;BME280;68062;48.726;9.370;2023-03-17T04:14:54;98382.41;;;5.38;76.34
78741;BME280;68062;48.726;9.370;2023-03-17T04:17:21;98371.44;;;5.44;77.47
78741;BME280;68062;48.726;9.370;2023-03-17T04:19:49;98368.09;;;5.50;76.05
78741;BME280;68062;48.726;9.370;2023-03-17T04:22:17;98373.78;;;5.27;76.81
78741;BME280;68062;48.726;9.370;2023-03-17T04:24:44;98365.13;;;5.17;77.32
78741;BME280;68062;48.726;9.370;2023-03-17T04:27:10;98366.09;;;5.24;76.26
78741;BME280;68062;48.726;9.370;2023-03-17T04:29:40;98276.72;;;4.48;76.39
78741;BME280;68062;48.726;9.370;2023-03-17T04:32:08;98365.25;;;5.25;76.50
78741;BME280;68062;48.726;9.370;2023-03-17T04:34:35;98364.47;;;5.29;75.54
78741;BME280;68062;48.726;9.370;2023-03-17T04:37:03;98364.47;;;5.30;75.54
78741;BME280;68062;48.726;9.370;2023-03-17T04:39:30;98366.94;;;5.24;74.22
78741;BME280;68062;48.726;9.370;2023-03-17T04:41:56;98359.31;;;5.27;74.37
78741;BME280;68062;48.726;9.370;2023-03-17T04:44:23;98356.69;;;5.21;75.43
78741;BME280;68062;48.726;9.370;2023-03-17T04:46:50;98342.94;;;5.08;74.94
78741;BME280;68062;48.726;9.370;2023-03-17T04:49:17;98349.91;;;5.22;74.83
78741;BME280;68062;48.726;9.370;2023-03-17T04:51:44;98344.53;;;5.01;75.45
78741;BME280;68062;48.726;9.370;2023-03-17T04:54:13;98353.94;;;5.04;74.93
78741;BME280;68062;48.726;9.370;2023-03-17T04:56:40;98293.06;;;4.64;75.06
78741;BME280;68062;48.726;9.370;2023-03-17T04:59:07;98352.31;;;5.09;74.90
78741;BME280;68062;48.726;9.370;2023-03-17T05:01:35;98345.44;;;5.05;75.83
78741;BME280;68062;48.726;9.370;2023-03-17T05:04:03;98334.22;;;4.92;75.52
78741;BME280;68062;48.726;9.370;2023-03-17T05:06:31;98300.91;;;4.80;75.46
78741;BME280;68062;48.726;9.370;2023-03-17T05:08:58;98343.75;;;5.06;74.67
78741;BME280;68062;48.726;9.370;2023-03-17T05:11:26;98341.69;;;4.78;76.50
78741;BME280;68062;48.726;9.370;2023-03-17T05:13:53;98252.72;;;4.34;75.86
78741;BME280;68062;48.726;9.370;2023-03-17T05:16:19;98338.03;;;4.61;76.94
78741;BME280;68062;48.726;9.370;2023-03-17T05:18:46;98339.03;;;4.72;76.55
78741;BME280;68062;48.726;9.370;2023-03-17T05:21:13;98275.59;;;4.31;75.99
78741;BME280;68062;48.726;9.370;2023-03-17T05:23:40;98244.06;;;4.22;76.81
78741;BME280;68062;48.726;9.370;2023-03-17T05:26:07;98333.16;;;4.76;75.90
78741;BME280;68062;48.726;9.370;2023-03-17T05:28:36;98351.81;;;4.75;76.31
78741;BME280;68062;48.726;9.370;2023-03-17T05:31:03;98330.56;;;4.75;76.06
78741;BME280;68062;48.726;9.370;2023-03-17T05:33:31;98329.72;;;4.74;75.79
78741;BME280;68062;48.726;9.370;2023-03-17T05:35:59;98173.66;;;3.66;76.09
78741;BME280;68062;48.726;9.370;2023-03-17T05:38:27;98334.25;;;4.37;76.79
78741;BME280;68062;48.726;9.370;2023-03-17T05:40:54;98319.59;;;4.23;77.16
78741;BME280;68062;48.726;9.370;2023-03-17T05:43:21;98346.06;;;4.32;77.29
78741;BME280;68062;48.726;9.370;2023-03-17T05:45:49;98353.75;;;4.35;78.20
78741;BME280;68062;48.726;9.370;2023-03-17T05:48:16;98326.38;;;4.21;77.59
78741;BME280;68062;48.726;9.370;2023-03-17T05:50:43;98356.13;;;4.27;79.05
78741;BME280;68062;48.726;9.370;2023-03-17T05:53:10;98358.41;;;4.11;79.39
78741;BME280;68062;48.726;9.370;2023-03-17T05:55:36;98361.91;;;4.17;79.84
78741;BME280;68062;48.726;9.370;2023-03-17T05:58:03;98363.56;;;4.13;80.61
78741;BME280;68062;48.726;9.370;2023-03-17T06:00:31;98366.16;;;4.16;81.01
78741;BME280;68062;48.726;9.370;2023-03-17T06:02:59;98365.38;;;4.22;79.82
78741;BME280;68062;48.726;9.370;2023-03-17T06:05:26;98354.38;;;4.23;80.77
78741;BME280;68062;48.726;9.370;2023-03-17T06:07:53;98348.69;;;4.38;80.02
78741;BME280;68062;48.726;9.370;2023-03-17T06:10:22;98347.88;;;4.40;79.07
78741;BME280;68062;48.726;9.370;2023-03-17T06:12:49;98350.38;;;4.37;79.33
78741;BME280;68062;48.726;9.370;2023-03-17T06:15:16;98355.75;;;4.56;79.60
78741;BME280;68062;48.726;9.370;2023-03-17T06:17:43;98355.06;;;4.65;78.77
78741;BME280;68062;48.726;9.370;2023-03-17T06:20:12;98345.81;;;4.70;79.09
78741;BME280;68062;48.726;9.370;2023-03-17T06:22:39;98346.88;;;4.86;78.71
78741;BME280;68062;48.726;9.370;2023-03-17T06:25:07;98346.94;;;4.91;77.38
78741;BME280;68062;48.726;9.370;2023-03-17T06:27:35;98357.31;;;5.05;77.83
78741;BME280;68062;48.726;9.370;2023-03-17T06:30:02;98364.97;;;5.03;77.73
78741;BME280;68062;48.726;9.370;2023-03-17T06:32:30;98368.22;;;4.94;77.09
78741;BME280;68062;48.726;9.370;2023-03-17T06:34:58;98370.81;;;4.96;78.86
78741;BME280;68062;48.726;9.370;2023-03-17T06:37:27;98360.75;;;5.05;78.23
78741;BME280;68062;48.726;9.370;2023-03-17T06:39:54;98361.66;;;5.10;78.21
78741;BME280;68062;48.726;9.370;2023-03-17T06:42:20;98369.22;;;5.04;77.43
78741;BME280;68062;48.726;9.370;2023-03-17T06:44:47;98381.00;;;4.96;77.89
78741;BME280;68062;48.726;9.370;2023-03-17T06:47:16;98369.19;;;5.01;78.08
78741;BME280;68062;48.726;9.370;2023-03-17T06:49:43;98376.88;;;5.04;78.60
78741;BME280;68062;48.726;9.370;2023-03-17T06:52:11;98371.56;;;4.90;79.01
78741;BME280;68062;48.726;9.370;2023-03-17T06:54:39;98367.72;;;5.20;77.87
78741;BME280;68062;48.726;9.370;2023-03-17T06:57:06;98358.69;;;5.45;76.76
78741;BME280;68062;48.726;9.370;2023-03-17T06:59:34;98342.59;;;5.50;76.26
78741;BME280;68062;48.726;9.370;2023-03-17T07:02:00;98359.63;;;5.52;76.80
78741;BME280;68062;48.726;9.370;2023-03-17T07:04:27;98353.75;;;5.59;76.10
78741;BME280;68062;48.726;9.370;2023-03-17T07:06:54;98352.22;;;5.74;75.73
78741;BME280;68062;48.726;9.370;2023-03-17T07:09:22;98354.91;;;5.86;75.79
78741;BME280;68062;48.726;9.370;2023-03-17T07:11:50;98345.41;;;5.73;74.93
78741;BME280;68062;48.726;9.370;2023-03-17T07:14:17;98352.28;;;5.80;75.83
78741;BME280;68062;48.726;9.370;2023-03-17T07:16:44;98352.53;;;6.00;74.59
78741;BME280;68062;48.726;9.370;2023-03-17T07:19:11;98354.25;;;6.03;75.55
78741;BME280;68062;48.726;9.370;2023-03-17T07:21:38;98361.16;;;6.15;74.39
78741;BME280;68062;48.726;9.370;2023-03-17T07:24:05;98365.41;;;6.13;74.13
78741;BME280;68062;48.726;9.370;2023-03-17T07:26:32;98370.47;;;6.10;74.21
78741;BME280;68062;48.726;9.370;2023-03-17T07:29:00;98367.28;;;6.32;73.78
78741;BME280;68062;48.726;9.370;2023-03-17T07:31:27;98353.66;;;6.29;73.54
78741;BME280;68062;48.726;9.370;2023-03-17T07:33:53;98362.22;;;6.39;72.82
78741;BME280;68062;48.726;9.370;2023-03-17T07:36:21;98356.34;;;6.44;71.79
78741;BME280;68062;48.726;9.370;2023-03-17T07:38:48;98358.03;;;6.44;71.37
78741;BME280;68062;48.726;9.370;2023-03-17T07:41:16;98353.81;;;6.52;71.92
78741;BME280;68062;48.726;9.370;2023-03-17T07:43:42;98353.91;;;6.65;71.53
78741;BME280;68062;48.726;9.370;2023-03-17T07:46:10;98350.56;;;6.73;71.10
78741;BME280;68062;48.726;9.370;2023-03-17T07:48:38;98344.66;;;6.82;70.94
78741;BME280;68062;48.726;9.370;2023-03-17T07:51:11;98312.25;;;6.76;70.34
78741;BME280;68062;48.726;9.370;2023-03-17T07:53:38;98348.19;;;7.04;69.98
78741;BME280;68062;48.726;9.370;2023-03-17T07:56:06;98343.94;;;7.06;69.95
78741;BME280;68062;48.726;9.370;2023-03-17T07:58:32;98341.44;;;7.16;70.33
78741;BME280;68062;48.726;9.370;2023-03-17T08:00:59;98343.13;;;7.09;70.81
78741;BME280;68062;48.726;9.370;2023-03-17T08:03:27;98341.41;;;7.08;70.53
78741;BME280;68062;48.726;9.370;2023-03-17T08:05:55;98343.94;;;7.06;70.76
78741;BME280;68062;48.726;9.370;2023-03-17T08:08:23;98328.72;;;7.31;70.24
78741;BME280;68062;48.726;9.370;2023-03-17T08:10:50;98338.13;;;7.32;69.94
78741;BME280;68062;48.726;9.370;2023-03-17T08:13:17;98323.66;;;7.41;69.33
78741;BME280;68062;48.726;9.370;2023-03-17T08:15:44;98330.50;;;7.46;68.96
78741;BME280;68062;48.726;9.370;2023-03-17T08:18:11;98333.13;;;7.62;68.93
78741;BME280;68062;48.726;9.370;2023-03-17T08:20:40;98330.59;;;7.73;68.08
78741;BME280;68062;48.726;9.370;2023-03-17T08:23:06;98334.03;;;7.81;67.79
78741;BME280;68062;48.726;9.370;2023-03-17T08:25:33;98338.31;;;7.87;67.33
78741;BME280;68062;48.726;9.370;2023-03-17T08:28:00;98330.63;;;7.91;66.90
78741;BME280;68062;48.726;9.370;2023-03-17T08:30:28;98332.31;;;7.97;67.15
78741;BME280;68062;48.726;9.370;2023-03-17T08:32:55;98343.47;;;8.21;66.33
78741;BME280;68062;48.726;9.370;2023-03-17T08:35:22;98335.78;;;8.30;66.26
78741;BME280;68062;48.726;9.370;2023-03-17T08:37:50;98334.91;;;8.22;65.82
78741;BME280;68062;48.726;9.370;2023-03-17T08:40:17;98333.22;;;8.29;65.51
78741;BME280;68062;48.726;9.370;2023-03-17T08:42:47;98340.94;;;8.44;64.70
78741;BME280;68062;48.726;9.370;2023-03-17T08:45:16;98306.75;;;8.31;64.45
78741;BME280;68062;48.726;9.370;2023-03-17T08:47:44;98321.28;;;8.51;63.58
78741;BME280;68062;48.726;9.370;2023-03-17T08:50:15;98325.56;;;8.61;63.75
78741;BME280;68062;48.726;9.370;2023-03-17T08:52:43;98324.69;;;8.72;63.42
78741;BME280;68062;48.726;9.370;2023-03-17T08:55:12;98322.13;;;8.78;62.95
78741;BME280;68062;48.726;9.370;2023-03-17T08:57:39;98316.13;;;8.76;62.58
78741;BME280;68062;48.726;9.370;2023-03-17T09:00:06;98313.59;;;8.74;61.76
78741;BME280;68062;48.726;9.370;2023-03-17T09:02:36;98315.31;;;8.75;60.51
78741;BME280;68062;48.726;9.370;2023-03-17T09:05:03;98298.19;;;8.82;60.50
78741;BME280;68062;48.726;9.370;2023-03-17T09:07:30;98316.97;;;8.95;60.12
78741;BME280;68062;48.726;9.370;2023-03-17T09:09:57;98316.94;;;9.03;60.15
78741;BME280;68062;48.726;9.370;2023-03-17T09:12:25;98309.19;;;9.23;60.08
78741;BME280;68062;48.726;9.370;2023-03-17T09:14:52;98311.69;;;9.35;60.54
78741;BME280;68062;48.726;9.370;2023-03-17T09:17:20;98297.97;;;9.44;59.88
78741;BME280;68062;48.726;9.370;2023-03-17T09:19:47;98297.06;;;9.57;57.79
78741;BME280;68062;48.726;9.370;2023-03-17T09:22:15;98297.81;;;9.74;56.08
78741;BME280;68062;48.726;9.370;2023-03-17T09:24:43;98294.28;;;9.87;56.38
78741;BME280;68062;48.726;9.370;2023-03-17T09:27:11;98286.50;;;9.99;56.00
78741;BME280;68062;48.726;9.370;2023-03-17T09:29:40;98254.88;;;9.94;55.73
78741;BME280;68062;48.726;9.370;2023-03-17T09:32:07;98287.19;;;10.23;54.74
78741;BME280;68062;48.726;9.370;2023-03-17T09:34:34;98285.38;;;10.41;54.00
78741;BME280;68062;48.726;9.370;2023-03-17T09:37:01;98282.75;;;10.49;54.21
78741;BME280;68062;48.726;9.370;2023-03-17T09:39:28;98278.31;;;10.62;53.58
78741;BME280;68062;48.726;9.370;2023-03-17T09:42:06;98284.19;;;10.76;53.70
78741;BME280;68062;48.726;9.370;2023-03-17T09:44:54;98276.34;;;10.88;53.39
78741;BME280;68062;48.726;9.370;2023-03-17T09:47:51;98280.41;;;11.07;51.67
78741;BME280;68062;48.726;9.370;2023-03-17T09:50:23;98283.66;;;11.21;52.24
78741;BME280;68062;48.726;9.370;2023-03-17T09:52:50;98281.03;;;11.27;51.90
78741;BME280;68062;48.726;9.370;2023-03-17T09:55:23;98283.44;;;11.41;51.97
78741;BME280;68062;48.726;9.370;2023-03-17T09:57:53;98284.97;;;11.53;51.45
78741;BME280;68062;48.726;9.370;2023-03-17T10:00:24;98283.16;;;11.61;51.25
78741;BME280;68062;48.726;9.370;2023-03-17T10:02:54;98263.50;;;11.54;49.06
78741;BME280;68062;48.726;9.370;2023-03-17T10:05:24;98275.25;;;11.74;49.80
78741;BME280;68062;48.726;9.370;2023-03-17T10:08:01;98283.72;;;11.84;48.87
78741;BME280;68062;48.726;9.370;2023-03-17T10:10:36;98274.16;;;11.90;49.61
78741;BME280;68062;48.726;9.370;2023-03-17T10:13:11;98256.16;;;11.87;50.21
78741;BME280;68062;48.726;9.370;2023-03-17T10:15:47;98269.75;;;11.97;50.08
78741;BME280;68062;48.726;9.370;2023-03-17T10:18:16;98272.16;;;12.11;50.67
78741;BME280;68062;48.726;9.370;2023-03-17T10:20:48;98264.22;;;12.24;49.97
78741;BME280;68062;48.726;9.370;2023-03-17T10:23:19;98251.06;;;12.39;49.36
78741;BME280;68062;48.726;9.370;2023-03-17T10:25:49;98246.53;;;12.54;47.91
78741;BME280;68062;48.726;9.370;2023-03-17T10:28:23;98252.16;;;12.74;48.07
78741;BME280;68062;48.726;9.370;2023-03-17T10:30:53;98247.47;;;12.95;47.08
78741;BME280;68062;48.726;9.370;2023-03-17T10:33:23;98236.72;;;13.15;47.67
78741;BME280;68062;48.726;9.370;2023-03-17T10:35:50;98237.16;;;13.36;46.85
78741;BME280;68062;48.726;9.370;2023-03-17T10:38:19;98236.72;;;13.58;46.50
78741;BME280;68062;48.726;9.370;2023-03-17T10:40:54;98227.53;;;13.82;46.33
78741;BME280;68062;48.726;9.370;2023-03-17T10:43:22;98222.81;;;14.00;44.17
78741;BME280;68062;48.726;9.370;2023-03-17T10:45:58;98210.25;;;14.20;44.72
78741;BME280;68062;48.726;9.370;2023-03-17T10:48:25;98211.59;;;14.35;44.65
78741;BME280;68062;48.726;9.370;2023-03-17T10:50:55;98219.28;;;14.38;43.76
78741;BME280;68062;48.726;9.370;2023-03-17T10:53:24;98202.88;;;14.39;44.43
78741;BME280;68062;48.726;9.370;2023-03-17T10:55:57;98223.34;;;14.47;45.41
78741;BME280;68062;48.726;9.370;2023-03-17T10:58:35;98209.44;;;14.51;42.49
78741;BME280;68062;48.726;9.370;2023-03-17T11:01:06;98215.44;;;14.53;43.70
78741;BME280;68062;48.726;9.370;2023-03-17T11:03:38;98212.03;;;14.51;44.37
78741;BME280;68062;48.726;9.370;2023-03-17T11:06:07;98212.00;;;14.53;45.83
78741;BME280;68062;48.726;9.370;2023-03-17T11:08:37;98194.22;;;14.40;45.74
78741;BME280;68062;48.726;9.370;2023-03-17T11:11:07;98213.69;;;14.54;45.56
78741;BME280;68062;48.726;9.370;2023-03-17T11:13:35;98211.81;;;14.59;45.49
78741;BME280;68062;48.726;9.370;2023-03-17T11:16:19;98199.44;;;14.72;44.70
78741;BME280;68062;48.726;9.370;2023-03-17T11:18:50;98195.63;;;14.84;44.01
78741;BME280;68062;48.726;9.370;2023-03-17T11:21:21;98196.97;;;14.99;45.31
78741;BME280;68062;48.726;9.370;2023-03-17T11:23:57;98191.25;;;15.18;45.27
78741;BME280;68062;48.726;9.370;2023-03-17T11:26:37;98146.44;;;15.14;45.65
78741;BME280;68062;48.726;9.370;2023-03-17T11:29:19;98167.78;;;15.51;46.00
78741;BME280;68062;48.726;9.370;2023-03-17T11:31:54;98175.91;;;15.67;44.54
78741;BME280;68062;48.726;9.370;2023-03-17T11:34:30;98166.91;;;15.79;43.78
78741;BME280;68062;48.726;9.370;2023-03-17T11:37:11;98166.41;;;15.94;44.35
78741;BME280;68062;48.726;9.370;2023-03-17T11:39:45;98166.16;;;16.02;44.68
78741;BME280;68062;48.726;9.370;2023-03-17T11:42:19;98156.28;;;16.13;43.66
78741;BME280;68062;48.726;9.370;2023-03-17T11:45:02;98143.66;;;16.28;43.00
78741;BME280;68062;48.726;9.370;2023-03-17T11:47:43;98138.88;;;16.41;43.04
78741;BME280;68062;48.726;9.370;2023-03-17T11:50:24;98147.13;;;16.52;42.71
78741;BME280;68062;48.726;9.370;2023-03-17T11:53:14;98144.09;;;16.65;42.10
78741;BME280;68062;48.726;9.370;2023-03-17T11:55:45;98135.94;;;16.75;41.81
78741;BME280;68062;48.726;9.370;2023-03-17T11:58:26;98122.75;;;16.80;40.27
78741;BME280;68062;48.726;9.370;2023-03-17T12:00:57;98129.19;;;16.94;40.73
78741;BME280;68062;48.726;9.370;2023-03-17T12:03:30;98129.88;;;16.99;40.05
78741;BME280;68062;48.726;9.370;2023-03-17T12:06:06;98121.06;;;17.03;39.38
78741;BME280;68062;48.726;9.370;2023-03-17T12:08:40;98113.91;;;17.10;39.58
78741;BME280;68062;48.726;9.370;2023-03-17T12:11:12;98119.56;;;17.19;39.00
78741;BME280;68062;48.726;9.370;2023-03-17T12:13:43;98108.69;;;17.32;38.41
78741;BME280;68062;48.726;9.370;2023-03-17T12:16:16;98106.75;;;17.37;38.46
78741;BME280;68062;48.726;9.370;2023-03-17T12:19:02;98100.16;;;17.50;38.53
78741;BME280;68062;48.726;9.370;2023-03-17T12:21:35;98104.91;;;17.61;38.33
78741;BME280;68062;48.726;9.370;2023-03-17T12:24:09;98095.94;;;17.69;37.89
78741;BME280;68062;48.726;9.370;2023-03-17T12:26:39;98051.69;;;17.49;37.51
78741;BME280;68062;48.726;9.370;2023-03-17T12:29:12;98095.13;;;17.89;36.19
78741;BME280;68062;48.726;9.370;2023-03-17T12:31:45;98093.03;;;17.97;35.63
78741;BME280;68062;48.726;9.370;2023-03-17T12:34:18;98090.91;;;18.07;36.48
78741;BME280;68062;48.726;9.370;2023-03-17T12:36:47;98087.19;;;18.13;35.37
78741;BME280;68062;48.726;9.370;2023-03-17T12:39:17;98076.66;;;18.16;35.19
78741;BME280;68062;48.726;9.370;2023-03-17T12:42:14;98081.19;;;18.31;35.23
78741;BME280;68062;48.726;9.370;2023-03-17T12:45:09;98075.97;;;18.31;34.04
78741;BME280;68062;48.726;9.370;2023-03-17T12:47:54;98078.44;;;18.34;34.35
78741;BME280;68062;48.726;9.370;2023-03-17T12:50:41;98077.13;;;18.45;35.57
78741;BME280;68062;48.726;9.370;2023-03-17T12:53:24;98075.84;;;18.53;34.72
78741;BME280;68062;48.726;9.370;2023-03-17T12:55:58;98075.63;;;18.58;33.17
78741;BME280;68062;48.726;9.370;2023-03-17T12:58:31;98077.13;;;18.64;33.68
78741;BME280;68062;48.726;9.370;2023-03-17T13:01:11;98063.72;;;18.72;33.37
78741;BME280;68062;48.726;9.370;2023-03-17T13:03:45;98066.97;;;18.77;31.95
78741;BME280;68062;48.726;9.370;2023-03-17T13:06:23;98060.78;;;18.79;31.51
78741;BME280;68062;48.726;9.370;2023-03-17T13:08:52;98061.28;;;18.88;32.71
78741;BME280;68062;48.726;9.370;2023-03-17T13:11:25;98056.69;;;18.93;32.17
78741;BME280;68062;48.726;9.370;2023-03-17T13:14:15;98059.03;;;18.99;33.41
78741;BME280;68062;48.726;9.370;2023-03-17T13:16:49;98044.16;;;19.01;33.37
78741;BME280;68062;48.726;9.370;2023-03-17T13:19:19;98038.72;;;19.06;33.99
78741;BME280;68062;48.726;9.370;2023-03-17T13:24:44;98035.53;;;19.18;34.38
78741;BME280;68062;48.726;9.370;2023-03-17T13:27:13;98035.38;;;19.21;33.34